sensor_id;sensor_type;location;lat;lon;timestamp;P1;durP1;ratioP1;P2;durP2;ratioP2
38479;SDS011;62333;51.980;5.934;2023-07-29T00:01:35;2.85;;;1.75;;
38479;SDS011;62333;51.980;5.934;2023-07-29T00:04:01;3.60;;;2.13;;
38479;SDS011;62333;51.980;5.934;2023-07-29T00:06:27;3.28;;;2.22;;
38479;SDS011;62333;51.980;5.934;2023-07-29T00:08:53;3.63;;;1.77;;
38479;SDS011;62333;51.980;5.934;2023-07-29T00:11:19;3.72;;;1.90;;
38479;SDS011;62333;51.980;5.934;2023-07-29T00:13:44;3.55;;;2.35;;
38479;SDS011;62333;51.980;5.934;2023-07-29T00:16:12;4.15;;;1.92;;
38479;SDS011;62333;51.980;5.934;2023-07-29T00:18:37;3.80;;;2.35;;
38479;SDS011;62333;51.980;5.934;2023-07-29T00:21:03;3.28;;;2.05;;
38479;SDS011;62333;51.980;5.934;2023-07-29T00:23:29;3.42;;;1.88;;
38479;SDS011;62333;51.980;5.934;2023-07-29T00:25:54;2.92;;;1.88;;
38479;SDS011;62333;51.980;5.934;2023-07-29T00:28:20;3.53;;;1.58;;
38479;SDS011;62333;51.980;5.934;2023-07-29T00:30:46;4.82;;;2.15;;
38479;SDS011;62333;51.980;5.934;2023-07-29T00:33:11;6.28;;;2.67;;
38479;SDS011;62333;51.980;5.934;2023-07-29T00:35:37;3.42;;;2.13;;
38479;SDS011;62333;51.980;5.934;2023-07-29T00:38:02;5.05;;;2.15;;
38479;SDS011;62333;51.980;5.934;2023-07-29T00:40:28;5.85;;;1.95;;
38479;SDS011;62333;51.980;5.934;2023-07-29T00:42:55;3.65;;;2.00;;
38479;SDS011;62333;51.980;5.934;2023-07-29T00:45:20;3.28;;;2.17;;
38479;SDS011;62333;51.980;5.934;2023-07-29T00:47:46;3.42;;;2.35;;
38479;SDS011;62333;51.980;5.934;2023-07-29T00:50:13;3.13;;;2.00;;
38479;SDS011;62333;51.980;5.934;2023-07-29T00:52:40;4.07;;;2.30;;
38479;SDS011;62333;51.980;5.934;2023-07-29T00:55:06;3.53;;;2.72;;
38479;SDS011;62333;51.980;5.934;2023-07-29T00:57:32;2.97;;;2.20;;
38479;SDS011;62333;51.980;5.934;2023-07-29T00:59:58;4.63;;;2.53;;
38479;SDS011;62333;51.980;5.934;2023-07-29T01:02:25;3.15;;;1.63;;
38479;SDS011;62333;51.980;5.934;2023-07-29T01:04:58;3.72;;;2.15;;
38479;SDS011;62333;51.980;5.934;2023-07-29T01:15:43;5.13;;;2.72;;
38479;SDS011;62333;51.980;5.934;2023-07-29T01:18:15;3.92;;;2.15;;
38479;SDS011;62333;51.980;5.934;2023-07-29T01:20:56;7.53;;;2.97;;
38479;SDS011;62333;51.980;5.934;2023-07-29T01:23:25;4.70;;;2.87;;
38479;SDS011;62333;51.980;5.934;2023-07-29T01:25:54;4.50;;;2.92;;
38479;SDS011;62333;51.980;5.934;2023-07-29T01:28:19;3.70;;;2.38;;
38479;SDS011;62333;51.980;5.934;2023-07-29T01:30:45;6.05;;;2.33;;
38479;SDS011;62333;51.980;5.934;2023-07-29T01:33:18;4.35;;;2.85;;
38479;SDS011;62333;51.980;5.934;2023-07-29T01:35:50;4.18;;;3.42;;
38479;SDS011;62333;51.980;5.934;2023-07-29T01:38:20;5.80;;;2.22;;
38479;SDS011;62333;51.980;5.934;2023-07-29T01:40:53;14.13;;;3.20;;
38479;SDS011;62333;51.980;5.934;2023-07-29T01:43:19;4.75;;;3.28;;
38479;SDS011;62333;51.980;5.934;2023-07-29T01:45:48;3.47;;;1.90;;
38479;SDS011;62333;51.980;5.934;2023-07-29T01:48:14;6.03;;;3.25;;
38479;SDS011;62333;51.980;5.934;2023-07-29T01:50:40;4.63;;;2.65;;
38479;SDS011;62333;51.980;5.934;2023-07-29T01:53:05;4.50;;;2.83;;
38479;SDS011;62333;51.980;5.934;2023-07-29T01:55:31;4.38;;;2.05;;
38479;SDS011;62333;51.980;5.934;2023-07-29T01:57:57;4.18;;;2.67;;
38479;SDS011;62333;51.980;5.934;2023-07-29T02:00:23;4.20;;;2.50;;
38479;SDS011;62333;51.980;5.934;2023-07-29T02:02:49;4.93;;;2.00;;
38479;SDS011;62333;51.980;5.934;2023-07-29T02:05:14;6.80;;;2.72;;
38479;SDS011;62333;51.980;5.934;2023-07-29T02:07:40;4.57;;;2.40;;
38479;SDS011;62333;51.980;5.934;2023-07-29T02:10:06;4.25;;;1.90;;
38479;SDS011;62333;51.980;5.934;2023-07-29T02:12:32;2.80;;;1.58;;
38479;SDS011;62333;51.980;5.934;2023-07-29T02:14:58;3.38;;;1.95;;
38479;SDS011;62333;51.980;5.934;2023-07-29T02:17:24;2.45;;;1.63;;
38479;SDS011;62333;51.980;5.934;2023-07-29T02:19:51;4.35;;;2.63;;
38479;SDS011;62333;51.980;5.934;2023-07-29T02:22:17;4.50;;;2.13;;
38479;SDS011;62333;51.980;5.934;2023-07-29T02:24:43;3.40;;;1.90;;
38479;SDS011;62333;51.980;5.934;2023-07-29T02:27:10;5.78;;;2.10;;
38479;SDS011;62333;51.980;5.934;2023-07-29T02:29:35;2.75;;;1.88;;
38479;SDS011;62333;51.980;5.934;2023-07-29T02:32:01;2.78;;;1.65;;
38479;SDS011;62333;51.980;5.934;2023-07-29T02:34:28;4.32;;;2.13;;
38479;SDS011;62333;51.980;5.934;2023-07-29T02:36:53;4.03;;;2.70;;
38479;SDS011;62333;51.980;5.934;2023-07-29T02:39:19;5.03;;;2.70;;
38479;SDS011;62333;51.980;5.934;2023-07-29T02:41:45;4.18;;;2.00;;
38479;SDS011;62333;51.980;5.934;2023-07-29T02:44:10;4.80;;;2.88;;
38479;SDS011;62333;51.980;5.934;2023-07-29T02:46:36;5.00;;;2.85;;
38479;SDS011;62333;51.980;5.934;2023-07-29T02:49:02;7.00;;;2.30;;
38479;SDS011;62333;51.980;5.934;2023-07-29T02:51:29;4.30;;;2.53;;
38479;SDS011;62333;51.980;5.934;2023-07-29T02:53:55;4.03;;;2.88;;
38479;SDS011;62333;51.980;5.934;2023-07-29T02:56:21;3.70;;;2.58;;
38479;SDS011;62333;51.980;5.934;2023-07-29T02:58:46;5.05;;;3.05;;
38479;SDS011;62333;51.980;5.934;2023-07-29T03:01:12;3.58;;;2.67;;
38479;SDS011;62333;51.980;5.934;2023-07-29T03:03:38;5.35;;;2.63;;
38479;SDS011;62333;51.980;5.934;2023-07-29T03:06:05;3.72;;;2.50;;
38479;SDS011;62333;51.980;5.934;2023-07-29T03:08:33;3.75;;;2.05;;
38479;SDS011;62333;51.980;5.934;2023-07-29T03:11:04;4.90;;;2.75;;
38479;SDS011;62333;51.980;5.934;2023-07-29T03:13:31;5.82;;;3.13;;
38479;SDS011;62333;51.980;5.934;2023-07-29T03:16:06;3.65;;;2.35;;
38479;SDS011;62333;51.980;5.934;2023-07-29T03:18:32;4.68;;;2.60;;
38479;SDS011;62333;51.980;5.934;2023-07-29T03:20:57;4.35;;;2.83;;
38479;SDS011;62333;51.980;5.934;2023-07-29T03:23:23;7.32;;;2.20;;
38479;SDS011;62333;51.980;5.934;2023-07-29T03:25:49;2.92;;;1.98;;
38479;SDS011;62333;51.980;5.934;2023-07-29T03:28:18;3.85;;;2.47;;
38479;SDS011;62333;51.980;5.934;2023-07-29T03:30:43;3.25;;;2.00;;
38479;SDS011;62333;51.980;5.934;2023-07-29T03:33:09;4.40;;;1.83;;
38479;SDS011;62333;51.980;5.934;2023-07-29T03:35:35;4.82;;;1.60;;
38479;SDS011;62333;51.980;5.934;2023-07-29T03:38:00;2.15;;;1.83;;
38479;SDS011;62333;51.980;5.934;2023-07-29T03:40:26;4.45;;;2.63;;
38479;SDS011;62333;51.980;5.934;2023-07-29T03:42:52;4.43;;;2.40;;
38479;SDS011;62333;51.980;5.934;2023-07-29T03:45:17;2.88;;;1.70;;
38479;SDS011;62333;51.980;5.934;2023-07-29T03:47:43;3.67;;;2.00;;
38479;SDS011;62333;51.980;5.934;2023-07-29T03:50:08;3.85;;;2.45;;
38479;SDS011;62333;51.980;5.934;2023-07-29T03:52:34;3.67;;;1.42;;
38479;SDS011;62333;51.980;5.934;2023-07-29T03:55:00;3.03;;;1.50;;
38479;SDS011;62333;51.980;5.934;2023-07-29T03:57:25;3.22;;;1.50;;
38479;SDS011;62333;51.980;5.934;2023-07-29T03:59:51;2.03;;;0.90;;
38479;SDS011;62333;51.980;5.934;2023-07-29T04:02:17;2.25;;;1.27;;
38479;SDS011;62333;51.980;5.934;2023-07-29T04:04:42;6.13;;;3.15;;
38479;SDS011;62333;51.980;5.934;2023-07-29T04:07:12;3.08;;;1.52;;
38479;SDS011;62333;51.980;5.934;2023-07-29T04:09:38;6.95;;;2.10;;
38479;SDS011;62333;51.980;5.934;2023-07-29T04:12:04;2.25;;;0.70;;
38479;SDS011;62333;51.980;5.934;2023-07-29T04:14:31;1.40;;;0.70;;
38479;SDS011;62333;51.980;5.934;2023-07-29T04:16:57;3.47;;;1.00;;
38479;SDS011;62333;51.980;5.934;2023-07-29T04:19:23;4.85;;;0.80;;
38479;SDS011;62333;51.980;5.934;2023-07-29T04:21:48;2.45;;;0.80;;
38479;SDS011;62333;51.980;5.934;2023-07-29T04:24:15;3.78;;;0.95;;
38479;SDS011;62333;51.980;5.934;2023-07-29T04:26:41;1.73;;;0.90;;
38479;SDS011;62333;51.980;5.934;2023-07-29T04:29:07;2.88;;;0.75;;
38479;SDS011;62333;51.980;5.934;2023-07-29T04:31:32;1.80;;;0.98;;
38479;SDS011;62333;51.980;5.934;2023-07-29T04:33:58;2.45;;;1.15;;
38479;SDS011;62333;51.980;5.934;2023-07-29T04:36:23;2.72;;;0.90;;
38479;SDS011;62333;51.980;5.934;2023-07-29T04:38:49;2.53;;;1.17;;
38479;SDS011;62333;51.980;5.934;2023-07-29T04:41:15;2.30;;;0.88;;
38479;SDS011;62333;51.980;5.934;2023-07-29T04:43:40;1.38;;;0.60;;
38479;SDS011;62333;51.980;5.934;2023-07-29T04:46:06;1.20;;;0.45;;
38479;SDS011;62333;51.980;5.934;2023-07-29T04:48:33;2.00;;;0.88;;
38479;SDS011;62333;51.980;5.934;2023-07-29T04:50:59;1.30;;;0.68;;
38479;SDS011;62333;51.980;5.934;2023-07-29T04:53:25;1.25;;;0.50;;
38479;SDS011;62333;51.980;5.934;2023-07-29T04:55:50;1.30;;;0.50;;
38479;SDS011;62333;51.980;5.934;2023-07-29T04:58:16;2.55;;;0.82;;
38479;SDS011;62333;51.980;5.934;2023-07-29T05:00:41;2.28;;;0.50;;
38479;SDS011;62333;51.980;5.934;2023-07-29T05:03:07;1.38;;;0.60;;
38479;SDS011;62333;51.980;5.934;2023-07-29T05:05:33;2.00;;;0.65;;
38479;SDS011;62333;51.980;5.934;2023-07-29T05:07:58;1.77;;;0.60;;
38479;SDS011;62333;51.980;5.934;2023-07-29T05:10:24;1.75;;;0.70;;
38479;SDS011;62333;51.980;5.934;2023-07-29T05:12:50;2.17;;;0.47;;
38479;SDS011;62333;51.980;5.934;2023-07-29T05:15:15;1.75;;;0.77;;
38479;SDS011;62333;51.980;5.934;2023-07-29T05:17:41;2.05;;;0.70;;
38479;SDS011;62333;51.980;5.934;2023-07-29T05:20:07;2.78;;;0.60;;
38479;SDS011;62333;51.980;5.934;2023-07-29T05:22:33;1.25;;;0.43;;
38479;SDS011;62333;51.980;5.934;2023-07-29T05:24:59;1.60;;;0.43;;
38479;SDS011;62333;51.980;5.934;2023-07-29T05:27:24;1.33;;;0.40;;
38479;SDS011;62333;51.980;5.934;2023-07-29T05:29:50;2.22;;;0.63;;
38479;SDS011;62333;51.980;5.934;2023-07-29T05:32:16;1.00;;;0.63;;
38479;SDS011;62333;51.980;5.934;2023-07-29T05:34:41;3.22;;;0.75;;
38479;SDS011;62333;51.980;5.934;2023-07-29T05:37:07;2.22;;;0.60;;
38479;SDS011;62333;51.980;5.934;2023-07-29T05:39:33;1.40;;;0.60;;
38479;SDS011;62333;51.980;5.934;2023-07-29T05:41:58;1.38;;;0.63;;
38479;SDS011;62333;51.980;5.934;2023-07-29T05:44:27;1.23;;;0.50;;
38479;SDS011;62333;51.980;5.934;2023-07-29T05:46:53;2.20;;;0.80;;
38479;SDS011;62333;51.980;5.934;2023-07-29T05:49:18;1.30;;;0.55;;
38479;SDS011;62333;51.980;5.934;2023-07-29T05:51:44;1.73;;;0.63;;
38479;SDS011;62333;51.980;5.934;2023-07-29T05:54:10;1.45;;;0.75;;
38479;SDS011;62333;51.980;5.934;2023-07-29T05:56:35;1.95;;;0.90;;
38479;SDS011;62333;51.980;5.934;2023-07-29T05:59:01;1.92;;;0.57;;
38479;SDS011;62333;51.980;5.934;2023-07-29T06:01:27;2.65;;;0.60;;
38479;SDS011;62333;51.980;5.934;2023-07-29T06:03:52;2.05;;;0.98;;
38479;SDS011;62333;51.980;5.934;2023-07-29T06:06:18;2.75;;;0.60;;
38479;SDS011;62333;51.980;5.934;2023-07-29T06:08:43;2.13;;;0.70;;
38479;SDS011;62333;51.980;5.934;2023-07-29T06:11:09;2.00;;;1.00;;
38479;SDS011;62333;51.980;5.934;2023-07-29T06:13:35;2.45;;;0.65;;
38479;SDS011;62333;51.980;5.934;2023-07-29T06:16:00;3.75;;;1.60;;
38479;SDS011;62333;51.980;5.934;2023-07-29T06:18:26;2.95;;;0.77;;
38479;SDS011;62333;51.980;5.934;2023-07-29T06:20:52;2.75;;;0.80;;
38479;SDS011;62333;51.980;5.934;2023-07-29T06:23:17;8.68;;;1.63;;
38479;SDS011;62333;51.980;5.934;2023-07-29T06:25:43;2.83;;;1.23;;
38479;SDS011;62333;51.980;5.934;2023-07-29T06:28:09;2.92;;;0.82;;
38479;SDS011;62333;51.980;5.934;2023-07-29T06:30:35;4.30;;;1.45;;
38479;SDS011;62333;51.980;5.934;2023-07-29T06:33:01;2.50;;;1.42;;
38479;SDS011;62333;51.980;5.934;2023-07-29T06:35:28;2.40;;;1.13;;
38479;SDS011;62333;51.980;5.934;2023-07-29T06:37:54;2.63;;;0.82;;
38479;SDS011;62333;51.980;5.934;2023-07-29T06:40:19;3.22;;;1.55;;
38479;SDS011;62333;51.980;5.934;2023-07-29T06:42:45;4.63;;;1.60;;
38479;SDS011;62333;51.980;5.934;2023-07-29T06:45:11;3.30;;;1.33;;
38479;SDS011;62333;51.980;5.934;2023-07-29T06:47:37;5.05;;;1.45;;
38479;SDS011;62333;51.980;5.934;2023-07-29T06:50:03;2.78;;;1.42;;
38479;SDS011;62333;51.980;5.934;2023-07-29T06:52:28;3.38;;;1.30;;
38479;SDS011;62333;51.980;5.934;2023-07-29T06:54:54;3.15;;;1.63;;
38479;SDS011;62333;51.980;5.934;2023-07-29T06:57:20;3.78;;;1.52;;
38479;SDS011;62333;51.980;5.934;2023-07-29T06:59:45;2.90;;;0.95;;
38479;SDS011;62333;51.980;5.934;2023-07-29T07:02:11;2.58;;;1.33;;
38479;SDS011;62333;51.980;5.934;2023-07-29T07:04:37;4.28;;;1.42;;
38479;SDS011;62333;51.980;5.934;2023-07-29T07:07:02;2.40;;;1.00;;
38479;SDS011;62333;51.980;5.934;2023-07-29T07:09:28;4.07;;;1.60;;
38479;SDS011;62333;51.980;5.934;2023-07-29T07:11:54;2.50;;;0.77;;
38479;SDS011;62333;51.980;5.934;2023-07-29T07:14:19;3.15;;;1.42;;
38479;SDS011;62333;51.980;5.934;2023-07-29T07:16:45;2.67;;;1.23;;
38479;SDS011;62333;51.980;5.934;2023-07-29T07:19:11;2.05;;;1.10;;
38479;SDS011;62333;51.980;5.934;2023-07-29T07:21:36;2.72;;;1.30;;
38479;SDS011;62333;51.980;5.934;2023-07-29T07:24:02;5.00;;;2.35;;
38479;SDS011;62333;51.980;5.934;2023-07-29T07:26:27;3.92;;;1.63;;
38479;SDS011;62333;51.980;5.934;2023-07-29T07:28:53;2.35;;;1.02;;
38479;SDS011;62333;51.980;5.934;2023-07-29T07:31:19;3.10;;;1.58;;
38479;SDS011;62333;51.980;5.934;2023-07-29T07:33:44;2.88;;;1.10;;
38479;SDS011;62333;51.980;5.934;2023-07-29T07:36:10;2.97;;;1.65;;
38479;SDS011;62333;51.980;5.934;2023-07-29T07:38:36;2.88;;;1.73;;
38479;SDS011;62333;51.980;5.934;2023-07-29T07:41:01;3.20;;;1.40;;
38479;SDS011;62333;51.980;5.934;2023-07-29T07:43:27;2.72;;;1.05;;
38479;SDS011;62333;51.980;5.934;2023-07-29T07:46:00;4.20;;;2.13;;
38479;SDS011;62333;51.980;5.934;2023-07-29T07:48:27;2.83;;;1.98;;
38479;SDS011;62333;51.980;5.934;2023-07-29T07:50:52;3.25;;;1.13;;
38479;SDS011;62333;51.980;5.934;2023-07-29T07:53:18;4.00;;;1.58;;
38479;SDS011;62333;51.980;5.934;2023-07-29T07:55:45;3.33;;;1.65;;
38479;SDS011;62333;51.980;5.934;2023-07-29T07:58:11;3.80;;;1.58;;
38479;SDS011;62333;51.980;5.934;2023-07-29T08:00:37;3.45;;;1.55;;
38479;SDS011;62333;51.980;5.934;2023-07-29T08:03:02;2.90;;;1.20;;
38479;SDS011;62333;51.980;5.934;2023-07-29T08:05:28;3.20;;;1.48;;
38479;SDS011;62333;51.980;5.934;2023-07-29T08:07:54;2.80;;;1.20;;
38479;SDS011;62333;51.980;5.934;2023-07-29T08:10:20;2.38;;;1.40;;
38479;SDS011;62333;51.980;5.934;2023-07-29T08:12:45;4.85;;;2.08;;
38479;SDS011;62333;51.980;5.934;2023-07-29T08:15:11;2.45;;;1.50;;
38479;SDS011;62333;51.980;5.934;2023-07-29T08:17:37;2.47;;;0.93;;
38479;SDS011;62333;51.980;5.934;2023-07-29T08:20:02;3.25;;;1.40;;
38479;SDS011;62333;51.980;5.934;2023-07-29T08:22:28;2.85;;;1.40;;
38479;SDS011;62333;51.980;5.934;2023-07-29T08:24:54;3.05;;;0.98;;
38479;SDS011;62333;51.980;5.934;2023-07-29T08:27:19;1.70;;;0.60;;
38479;SDS011;62333;51.980;5.934;2023-07-29T08:29:45;2.70;;;0.80;;
38479;SDS011;62333;51.980;5.934;2023-07-29T08:32:11;4.07;;;1.77;;
38479;SDS011;62333;51.980;5.934;2023-07-29T08:34:36;4.18;;;0.60;;
38479;SDS011;62333;51.980;5.934;2023-07-29T08:37:02;2.55;;;0.98;;
38479;SDS011;62333;51.980;5.934;2023-07-29T08:39:27;1.85;;;0.93;;
38479;SDS011;62333;51.980;5.934;2023-07-29T08:41:57;1.27;;;0.65;;
38479;SDS011;62333;51.980;5.934;2023-07-29T08:44:34;1.80;;;0.82;;
38479;SDS011;62333;51.980;5.934;2023-07-29T08:47:04;2.17;;;0.75;;
38479;SDS011;62333;51.980;5.934;2023-07-29T08:49:30;1.70;;;1.00;;
38479;SDS011;62333;51.980;5.934;2023-07-29T08:51:57;1.77;;;0.70;;
38479;SDS011;62333;51.980;5.934;2023-07-29T08:54:23;1.58;;;0.70;;
38479;SDS011;62333;51.980;5.934;2023-07-29T08:56:48;1.52;;;0.50;;
38479;SDS011;62333;51.980;5.934;2023-07-29T08:59:15;2.00;;;0.68;;
38479;SDS011;62333;51.980;5.934;2023-07-29T09:01:42;1.55;;;0.70;;
38479;SDS011;62333;51.980;5.934;2023-07-29T09:04:08;1.92;;;0.73;;
38479;SDS011;62333;51.980;5.934;2023-07-29T09:06:34;1.33;;;0.60;;
38479;SDS011;62333;51.980;5.934;2023-07-29T09:09:01;2.05;;;0.55;;
38479;SDS011;62333;51.980;5.934;2023-07-29T09:11:27;2.08;;;0.70;;
38479;SDS011;62333;51.980;5.934;2023-07-29T09:13:53;1.45;;;0.30;;
38479;SDS011;62333;51.980;5.934;2023-07-29T09:16:19;1.42;;;0.45;;
38479;SDS011;62333;51.980;5.934;2023-07-29T09:18:49;2.25;;;0.57;;
38479;SDS011;62333;51.980;5.934;2023-07-29T09:21:16;3.72;;;0.50;;
38479;SDS011;62333;51.980;5.934;2023-07-29T09:23:43;1.10;;;0.40;;
38479;SDS011;62333;51.980;5.934;2023-07-29T09:26:09;2.45;;;0.60;;
38479;SDS011;62333;51.980;5.934;2023-07-29T09:28:38;1.65;;;0.52;;
38479;SDS011;62333;51.980;5.934;2023-07-29T09:31:04;1.58;;;0.63;;
38479;SDS011;62333;51.980;5.934;2023-07-29T09:33:34;3.38;;;0.47;;
38479;SDS011;62333;51.980;5.934;2023-07-29T09:36:08;2.63;;;0.70;;
38479;SDS011;62333;51.980;5.934;2023-07-29T09:38:34;3.78;;;0.45;;
38479;SDS011;62333;51.980;5.934;2023-07-29T09:41:01;1.48;;;0.40;;
38479;SDS011;62333;51.980;5.934;2023-07-29T09:43:31;2.20;;;0.60;;
38479;SDS011;62333;51.980;5.934;2023-07-29T09:46:04;1.25;;;0.32;;
38479;SDS011;62333;51.980;5.934;2023-07-29T09:48:35;1.30;;;0.60;;
38479;SDS011;62333;51.980;5.934;2023-07-29T09:51:10;2.80;;;0.65;;
38479;SDS011;62333;51.980;5.934;2023-07-29T09:53:43;1.65;;;0.60;;
38479;SDS011;62333;51.980;5.934;2023-07-29T09:56:10;0.80;;;0.40;;
38479;SDS011;62333;51.980;5.934;2023-07-29T09:58:37;1.33;;;0.40;;
38479;SDS011;62333;51.980;5.934;2023-07-29T10:01:06;1.15;;;0.30;;
38479;SDS011;62333;51.980;5.934;2023-07-29T10:03:33;1.67;;;0.30;;
38479;SDS011;62333;51.980;5.934;2023-07-29T10:06:04;1.20;;;0.35;;
38479;SDS011;62333;51.980;5.934;2023-07-29T10:08:31;2.08;;;0.68;;
38479;SDS011;62333;51.980;5.934;2023-07-29T10:11:00;1.85;;;0.50;;
38479;SDS011;62333;51.980;5.934;2023-07-29T10:13:27;3.13;;;0.50;;
38479;SDS011;62333;51.980;5.934;2023-07-29T10:15:56;1.52;;;0.50;;
38479;SDS011;62333;51.980;5.934;2023-07-29T10:18:22;2.92;;;0.70;;
38479;SDS011;62333;51.980;5.934;2023-07-29T10:20:51;1.30;;;0.50;;
38479;SDS011;62333;51.980;5.934;2023-07-29T10:23:19;1.40;;;0.50;;
38479;SDS011;62333;51.980;5.934;2023-07-29T10:25:47;3.70;;;0.57;;
38479;SDS011;62333;51.980;5.934;2023-07-29T10:28:34;1.08;;;0.30;;
38479;SDS011;62333;51.980;5.934;2023-07-29T10:31:05;0.80;;;0.30;;
38479;SDS011;62333;51.980;5.934;2023-07-29T10:33:31;1.55;;;0.50;;
38479;SDS011;62333;51.980;5.934;2023-07-29T10:35:58;1.10;;;0.30;;
38479;SDS011;62333;51.980;5.934;2023-07-29T10:38:25;3.22;;;0.40;;
38479;SDS011;62333;51.980;5.934;2023-07-29T10:40:52;1.30;;;0.40;;
38479;SDS011;62333;51.980;5.934;2023-07-29T10:43:24;2.67;;;0.60;;
38479;SDS011;62333;51.980;5.934;2023-07-29T10:45:51;1.50;;;0.60;;
38479;SDS011;62333;51.980;5.934;2023-07-29T10:49:02;3.53;;;0.52;;
38479;SDS011;62333;51.980;5.934;2023-07-29T10:53:55;1.25;;;0.40;;
38479;SDS011;62333;51.980;5.934;2023-07-29T10:56:29;1.40;;;0.77;;
38479;SDS011;62333;51.980;5.934;2023-07-29T10:58:57;0.70;;;0.30;;
38479;SDS011;62333;51.980;5.934;2023-07-29T11:01:28;0.75;;;0.30;;
38479;SDS011;62333;51.980;5.934;2023-07-29T11:04:01;2.15;;;0.88;;
38479;SDS011;62333;51.980;5.934;2023-07-29T11:15:01;2.05;;;0.30;;
38479;SDS011;62333;51.980;5.934;2023-07-29T11:17:28;2.22;;;1.02;;
38479;SDS011;62333;51.980;5.934;2023-07-29T11:20:02;2.10;;;0.30;;
38479;SDS011;62333;51.980;5.934;2023-07-29T11:22:29;2.03;;;0.65;;
38479;SDS011;62333;51.980;5.934;2023-07-29T11:24:55;1.42;;;0.73;;
38479;SDS011;62333;51.980;5.934;2023-07-29T11:27:21;1.00;;;0.40;;
38479;SDS011;62333;51.980;5.934;2023-07-29T11:29:47;0.85;;;0.30;;
38479;SDS011;62333;51.980;5.934;2023-07-29T11:32:13;1.00;;;0.43;;
38479;SDS011;62333;51.980;5.934;2023-07-29T11:34:39;2.13;;;0.40;;
38479;SDS011;62333;51.980;5.934;2023-07-29T11:37:05;1.08;;;0.30;;
38479;SDS011;62333;51.980;5.934;2023-07-29T11:39:31;0.60;;;0.30;;
38479;SDS011;62333;51.980;5.934;2023-07-29T11:41:58;3.65;;;0.82;;
38479;SDS011;62333;51.980;5.934;2023-07-29T11:44:24;3.15;;;0.50;;
38479;SDS011;62333;51.980;5.934;2023-07-29T11:46:50;1.63;;;0.70;;
38479;SDS011;62333;51.980;5.934;2023-07-29T11:49:16;2.45;;;0.70;;
38479;SDS011;62333;51.980;5.934;2023-07-29T11:51:41;1.17;;;0.50;;
38479;SDS011;62333;51.980;5.934;2023-07-29T11:54:08;1.05;;;0.32;;
38479;SDS011;62333;51.980;5.934;2023-07-29T11:56:34;5.95;;;1.55;;
38479;SDS011;62333;51.980;5.934;2023-07-29T11:59:01;1.10;;;0.50;;
38479;SDS011;62333;51.980;5.934;2023-07-29T12:01:27;1.77;;;0.60;;
38479;SDS011;62333;51.980;5.934;2023-07-29T12:03:54;3.08;;;0.90;;
38479;SDS011;62333;51.980;5.934;2023-07-29T12:06:22;3.55;;;0.88;;
38479;SDS011;62333;51.980;5.934;2023-07-29T12:08:49;1.05;;;0.50;;
38479;SDS011;62333;51.980;5.934;2023-07-29T12:11:15;2.15;;;0.70;;
38479;SDS011;62333;51.980;5.934;2023-07-29T12:13:42;1.90;;;0.63;;
38479;SDS011;62333;51.980;5.934;2023-07-29T12:16:08;0.60;;;0.20;;
38479;SDS011;62333;51.980;5.934;2023-07-29T12:18:34;1.80;;;0.70;;
38479;SDS011;62333;51.980;5.934;2023-07-29T12:21:01;1.73;;;0.40;;
38479;SDS011;62333;51.980;5.934;2023-07-29T12:23:27;0.73;;;0.30;;
38479;SDS011;62333;51.980;5.934;2023-07-29T12:25:58;1.23;;;0.30;;
38479;SDS011;62333;51.980;5.934;2023-07-29T12:28:24;1.30;;;0.40;;
38479;SDS011;62333;51.980;5.934;2023-07-29T12:30:54;0.95;;;0.30;;
38479;SDS011;62333;51.980;5.934;2023-07-29T12:33:30;1.10;;;0.40;;
38479;SDS011;62333;51.980;5.934;2023-07-29T12:35:57;0.73;;;0.20;;
38479;SDS011;62333;51.980;5.934;2023-07-29T12:38:23;0.98;;;0.22;;
38479;SDS011;62333;51.980;5.934;2023-07-29T12:40:51;0.63;;;0.28;;
38479;SDS011;62333;51.980;5.934;2023-07-29T12:43:17;0.70;;;0.30;;
38479;SDS011;62333;51.980;5.934;2023-07-29T12:45:42;1.00;;;0.20;;
38479;SDS011;62333;51.980;5.934;2023-07-29T12:48:09;2.05;;;0.50;;
38479;SDS011;62333;51.980;5.934;2023-07-29T12:50:35;0.50;;;0.20;;
38479;SDS011;62333;51.980;5.934;2023-07-29T12:53:02;0.47;;;0.13;;
38479;SDS011;62333;51.980;5.934;2023-07-29T12:55:29;1.40;;;0.35;;
38479;SDS011;62333;51.980;5.934;2023-07-29T12:57:54;1.10;;;0.28;;
38479;SDS011;62333;51.980;5.934;2023-07-29T13:00:20;2.03;;;0.73;;
38479;SDS011;62333;51.980;5.934;2023-07-29T13:02:46;2.00;;;0.63;;
38479;SDS011;62333;51.980;5.934;2023-07-29T13:05:11;0.60;;;0.20;;
38479;SDS011;62333;51.980;5.934;2023-07-29T13:07:38;1.15;;;0.40;;
38479;SDS011;62333;51.980;5.934;2023-07-29T13:10:04;0.80;;;0.38;;
38479;SDS011;62333;51.980;5.934;2023-07-29T13:12:30;0.70;;;0.30;;
38479;SDS011;62333;51.980;5.934;2023-07-29T13:14:57;0.90;;;0.40;;
38479;SDS011;62333;51.980;5.934;2023-07-29T13:17:22;1.38;;;0.40;;
38479;SDS011;62333;51.980;5.934;2023-07-29T13:19:48;0.77;;;0.30;;
38479;SDS011;62333;51.980;5.934;2023-07-29T13:22:14;1.00;;;0.40;;
38479;SDS011;62333;51.980;5.934;2023-07-29T13:24:40;1.00;;;0.57;;
38479;SDS011;62333;51.980;5.934;2023-07-29T13:27:06;0.80;;;0.28;;
38479;SDS011;62333;51.980;5.934;2023-07-29T13:29:31;1.00;;;0.45;;
38479;SDS011;62333;51.980;5.934;2023-07-29T13:31:57;2.22;;;0.50;;
38479;SDS011;62333;51.980;5.934;2023-07-29T13:34:23;0.80;;;0.40;;
38479;SDS011;62333;51.980;5.934;2023-07-29T13:36:49;1.55;;;0.80;;
38479;SDS011;62333;51.980;5.934;2023-07-29T13:39:15;2.58;;;0.32;;
38479;SDS011;62333;51.980;5.934;2023-07-29T13:41:40;1.20;;;0.50;;
38479;SDS011;62333;51.980;5.934;2023-07-29T13:44:06;1.65;;;0.68;;
38479;SDS011;62333;51.980;5.934;2023-07-29T13:46:32;1.75;;;0.60;;
38479;SDS011;62333;51.980;5.934;2023-07-29T13:48:57;1.48;;;0.63;;
38479;SDS011;62333;51.980;5.934;2023-07-29T13:51:23;1.58;;;0.75;;
38479;SDS011;62333;51.980;5.934;2023-07-29T13:53:49;1.20;;;0.40;;
38479;SDS011;62333;51.980;5.934;2023-07-29T13:56:14;1.17;;;0.40;;
38479;SDS011;62333;51.980;5.934;2023-07-29T13:58:40;1.80;;;0.40;;
38479;SDS011;62333;51.980;5.934;2023-07-29T14:01:06;1.02;;;0.28;;
38479;SDS011;62333;51.980;5.934;2023-07-29T14:03:31;1.52;;;0.30;;
38479;SDS011;62333;51.980;5.934;2023-07-29T14:05:57;0.60;;;0.30;;
38479;SDS011;62333;51.980;5.934;2023-07-29T14:08:22;2.15;;;0.30;;
38479;SDS011;62333;51.980;5.934;2023-07-29T14:10:49;1.10;;;0.35;;
38479;SDS011;62333;51.980;5.934;2023-07-29T14:13:14;1.00;;;0.30;;
38479;SDS011;62333;51.980;5.934;2023-07-29T14:15:40;2.97;;;0.30;;
38479;SDS011;62333;51.980;5.934;2023-07-29T14:18:06;1.10;;;0.30;;
38479;SDS011;62333;51.980;5.934;2023-07-29T14:20:32;1.20;;;0.50;;
38479;SDS011;62333;51.980;5.934;2023-07-29T14:22:58;1.50;;;0.57;;
38479;SDS011;62333;51.980;5.934;2023-07-29T14:25:23;4.43;;;0.82;;
38479;SDS011;62333;51.980;5.934;2023-07-29T14:27:50;0.90;;;0.40;;
38479;SDS011;62333;51.980;5.934;2023-07-29T14:30:15;1.10;;;0.50;;
38479;SDS011;62333;51.980;5.934;2023-07-29T14:32:41;2.65;;;0.65;;
38479;SDS011;62333;51.980;5.934;2023-07-29T14:35:07;0.77;;;0.30;;
38479;SDS011;62333;51.980;5.934;2023-07-29T14:37:33;1.10;;;0.35;;
38479;SDS011;62333;51.980;5.934;2023-07-29T14:39:59;1.38;;;0.47;;
38479;SDS011;62333;51.980;5.934;2023-07-29T14:42:25;1.88;;;0.68;;
38479;SDS011;62333;51.980;5.934;2023-07-29T14:44:52;0.40;;;0.13;;
38479;SDS011;62333;51.980;5.934;2023-07-29T14:47:18;0.95;;;0.30;;
38479;SDS011;62333;51.980;5.934;2023-07-29T14:49:44;0.63;;;0.20;;
38479;SDS011;62333;51.980;5.934;2023-07-29T14:52:10;2.17;;;0.40;;
38479;SDS011;62333;51.980;5.934;2023-07-29T14:54:35;1.02;;;0.40;;
38479;SDS011;62333;51.980;5.934;2023-07-29T14:57:01;1.88;;;0.40;;
38479;SDS011;62333;51.980;5.934;2023-07-29T14:59:27;7.40;;;0.52;;
38479;SDS011;62333;51.980;5.934;2023-07-29T15:01:53;1.58;;;0.47;;
38479;SDS011;62333;51.980;5.934;2023-07-29T15:04:18;1.80;;;0.75;;